LFOE 281300Z AUTO 07003KT 020V150 CAVOK 26/19 Q1017

ElémentsDécodage
LFOE Station météo située sur l'aérodrome de EVREUX Fauville
281300Z émis le 28 du mois à 13h00 UTC
AUTO Bulletin édité par un automate
07003KT vent du 070°, 03 noeuds
020V150 vent de direction variable entre 020° et 150°
CAVOK Ceiling And Visibility OK
- Visibilité de 10 Km ou plus
- Pas de nuage au-dessous de 1500m ou au-dessous de l'altitude minimale du secteur la plus élevée (si>1500m) et absence de CB
- pas de temps présent significatif
26/19 température 26°C, point de rosée 19°C
 soit une humidité relative de 65%
Q1017 la pression au niveau de la mer (QNH) est de 1017 hPa